createdAt,value
2023-01-17T00:05:04.315Z,6.20
2023-01-17T00:10:07.732Z,6.22
2023-01-17T00:15:05.993Z,5.10
2023-01-17T00:20:21.601Z,6.07
2023-01-17T00:26:00.503Z,6.13
2023-01-17T00:30:57.944Z,6.00
2023-01-17T00:36:00.290Z,6.68
2023-01-17T00:41:05.984Z,6.68
2023-01-17T00:46:22.935Z,6.90
2023-01-17T00:51:39.699Z,9.18
2023-01-17T00:56:55.568Z,6.13
2023-01-17T01:02:11.534Z,7.35
2023-01-17T01:07:27.309Z,7.28
2023-01-17T01:12:43.087Z,6.30
2023-01-17T01:17:58.747Z,6.70
2023-01-17T01:23:14.943Z,6.82
2023-01-17T01:28:32.734Z,7.03
2023-01-17T01:33:29.917Z,8.45
2023-01-17T01:38:27.302Z,7.10
2023-01-17T01:43:43.595Z,7.68
2023-01-17T01:49:02.525Z,6.97
2023-01-17T01:54:19.619Z,7.05
2023-01-17T01:59:20.097Z,5.70
2023-01-17T02:04:19.458Z,6.57
2023-01-17T02:09:18.742Z,5.60
2023-01-17T02:14:21.505Z,6.22
2023-01-17T02:19:33.697Z,6.78
2023-01-17T02:25:07.160Z,5.93
2023-01-17T02:30:37.294Z,6.97
2023-01-17T02:35:44.777Z,5.75
2023-01-17T02:41:01.184Z,6.47
2023-01-17T02:45:58.577Z,6.10
2023-01-17T02:51:19.968Z,5.88
2023-01-17T02:56:26.566Z,5.07
2023-01-17T03:01:54.715Z,6.28
2023-01-17T03:07:04.285Z,5.60
2023-01-17T03:12:12.678Z,6.77
2023-01-17T03:17:19.271Z,7.43
2023-01-17T03:22:16.716Z,8.38
2023-01-17T03:27:22.870Z,7.13
2023-01-17T03:32:20.200Z,6.40
2023-01-17T03:37:23.404Z,8.40
2023-01-17T03:42:24.270Z,7.38
2023-01-17T03:47:24.501Z,8.07
2023-01-17T03:52:21.769Z,6.50
2023-01-17T03:57:32.260Z,7.40
2023-01-17T04:02:29.637Z,7.43
2023-01-17T04:07:27.069Z,7.18
2023-01-17T04:12:25.271Z,7.82
2023-01-17T04:17:22.609Z,7.43
2023-01-17T04:22:23.612Z,8.95
2023-01-17T04:27:21.015Z,8.35
2023-01-17T04:32:21.436Z,8.23
2023-01-17T04:37:28.136Z,7.30
2023-01-17T04:42:34.967Z,8.27
2023-01-17T04:47:34.488Z,8.50
2023-01-17T04:52:35.155Z,8.75
2023-01-17T04:57:46.286Z,9.60
2023-01-17T05:02:46.914Z,8.43
2023-01-17T05:13:44.124Z,8.95
2023-01-17T05:19:02.249Z,9.50
2023-01-17T05:29:33.868Z,9.70
2023-01-17T05:34:39.952Z,9.10
2023-01-17T05:39:42.857Z,9.25
2023-01-17T05:50:37.637Z,7.55
2023-01-17T05:55:41.929Z,7.75
2023-01-17T06:00:45.602Z,8.55
2023-01-17T06:05:48.738Z,7.20
2023-01-17T06:11:05.203Z,11.50
2023-01-17T06:16:18.072Z,9.57
2023-01-17T06:21:39.717Z,10.57
2023-01-17T06:27:16.927Z,9.30
2023-01-17T06:32:40.021Z,10.23
2023-01-17T06:37:41.216Z,10.38
2023-01-17T06:42:54.247Z,11.57
2023-01-17T06:48:17.194Z,11.60
2023-01-17T06:54:13.214Z,8.82
2023-01-17T06:59:29.119Z,9.20
2023-01-17T07:05:04.549Z,10.30
2023-01-17T07:10:08.135Z,9.32
2023-01-17T07:15:29.492Z,9.32
2023-01-17T07:20:41.991Z,9.18
2023-01-17T07:32:20.212Z,10.30
2023-01-17T07:37:54.020Z,10.27
2023-01-17T07:43:26.514Z,9.77
2023-01-17T07:49:02.161Z,9.10
2023-01-17T07:59:50.503Z,11.13
2023-01-17T08:11:11.992Z,17.00
2023-01-17T08:16:22.018Z,16.63
2023-01-17T08:33:06.894Z,11.65
2023-01-17T08:50:05.045Z,11.45
2023-01-17T09:29:40.978Z,12.45
2023-01-17T09:41:16.323Z,11.23
2023-01-17T09:47:17.997Z,12.40
2023-01-17T10:17:23.172Z,13.63
2023-01-17T10:23:15.264Z,11.93
2023-01-17T10:28:50.151Z,12.68
2023-01-17T10:40:26.488Z,11.23
2023-01-17T10:52:15.692Z,10.75
2023-01-17T11:09:41.859Z,7.90
2023-01-17T11:15:08.316Z,9.82
2023-01-17T11:20:26.171Z,8.45
2023-01-17T11:43:53.432Z,7.78
2023-01-17T11:49:57.045Z,7.90
2023-01-17T11:56:03.033Z,8.02
2023-01-17T12:02:02.215Z,7.10
2023-01-17T12:14:01.281Z,7.50
2023-01-17T12:48:55.010Z,6.45
2023-01-17T13:00:48.033Z,6.75
2023-01-17T13:07:06.459Z,7.13
2023-01-17T13:12:47.836Z,7.03
2023-01-17T13:24:09.600Z,7.30
2023-01-17T13:29:37.893Z,6.30
2023-01-17T13:35:42.105Z,7.05
2023-01-17T13:41:45.817Z,6.22
2023-01-17T13:47:31.283Z,5.95
2023-01-17T14:05:10.959Z,6.95
2023-01-17T14:11:05.527Z,6.38
2023-01-17T14:17:03.831Z,5.95
2023-01-17T14:22:44.738Z,5.72
2023-01-17T14:28:25.350Z,6.18
2023-01-17T14:46:00.079Z,6.90
2023-01-17T14:51:22.089Z,6.95
2023-01-17T14:56:54.077Z,8.23
2023-01-17T15:02:16.842Z,8.88
2023-01-17T15:14:37.075Z,9.50
2023-01-17T15:48:49.393Z,8.98
2023-01-17T16:00:28.067Z,10.48
2023-01-17T16:05:46.042Z,9.73
2023-01-17T16:16:36.507Z,9.35
2023-01-17T16:21:33.930Z,8.60
2023-01-17T16:26:31.668Z,9.30
2023-01-17T16:31:29.483Z,12.18
2023-01-17T16:36:27.006Z,10.20
2023-01-17T16:41:24.371Z,8.20
2023-01-17T16:46:21.711Z,8.18
2023-01-17T16:51:19.745Z,6.72
2023-01-17T16:56:19.192Z,6.75
2023-01-17T17:01:18.060Z,7.80
2023-01-17T17:06:18.963Z,5.83
2023-01-17T17:11:23.236Z,5.32
2023-01-17T17:16:22.711Z,5.63
2023-01-17T17:21:19.989Z,8.32
2023-01-17T17:26:18.700Z,8.10
2023-01-17T17:31:19.009Z,8.23
2023-01-17T17:36:19.636Z,8.73
2023-01-17T17:41:19.254Z,8.57
2023-01-17T17:46:16.998Z,10.60
2023-01-17T17:51:28.010Z,12.75
2023-01-17T17:56:25.349Z,10.30
2023-01-17T18:01:26.136Z,13.13
2023-01-17T18:06:24.155Z,12.00
2023-01-17T18:11:24.750Z,12.93
2023-01-17T18:16:24.167Z,13.05
2023-01-17T18:21:33.557Z,16.60
2023-01-17T18:26:46.506Z,14.25
2023-01-17T18:31:46.044Z,15.35
2023-01-17T18:36:44.031Z,15.77
2023-01-17T18:41:41.859Z,13.77
2023-01-17T18:46:40.497Z,16.83
2023-01-17T18:51:37.992Z,14.95
2023-01-17T18:56:38.500Z,15.15
2023-01-17T19:01:36.453Z,11.65
2023-01-17T19:06:38.103Z,12.52
2023-01-17T19:11:37.050Z,11.95
2023-01-17T19:16:39.614Z,14.63
2023-01-17T19:21:37.290Z,11.70
2023-01-17T19:26:34.536Z,12.00
2023-01-17T19:31:36.098Z,10.15
2023-01-17T19:36:38.572Z,11.63
2023-01-17T19:41:38.126Z,9.88
2023-01-17T19:46:36.631Z,11.15
2023-01-17T19:51:36.127Z,10.68
2023-01-17T19:56:33.848Z,11.50
2023-01-17T20:01:33.023Z,12.02
2023-01-17T20:06:34.749Z,11.48
2023-01-17T20:11:32.953Z,14.63
2023-01-17T20:16:32.360Z,16.23
2023-01-17T20:21:31.050Z,15.67
2023-01-17T20:26:39.449Z,15.13
2023-01-17T20:31:38.853Z,14.90
2023-01-17T20:36:37.126Z,13.18
2023-01-17T20:41:36.098Z,13.55
2023-01-17T20:46:37.550Z,9.55
2023-01-17T20:51:38.636Z,8.82
2023-01-17T20:56:37.690Z,9.70
2023-01-17T21:01:39.120Z,8.97
2023-01-17T21:06:38.827Z,9.20
2023-01-17T21:11:37.706Z,9.48
2023-01-17T21:16:35.552Z,10.45
2023-01-17T21:21:32.872Z,9.73
2023-01-17T21:26:30.358Z,10.10
2023-01-17T21:31:30.350Z,11.38
2023-01-17T21:36:29.767Z,11.35
2023-01-17T21:41:30.014Z,10.35
2023-01-17T21:46:28.910Z,11.10
2023-01-17T21:51:46.119Z,10.85
2023-01-17T21:57:01.784Z,10.80
2023-01-17T22:01:59.121Z,11.25
2023-01-17T22:06:56.348Z,12.32
2023-01-17T22:11:53.789Z,10.07
2023-01-17T22:16:51.988Z,10.45
2023-01-17T22:21:49.348Z,9.10
2023-01-17T22:26:46.674Z,9.63
2023-01-17T22:31:43.964Z,10.40
2023-01-17T22:36:41.921Z,8.73
2023-01-17T22:41:39.511Z,10.25
2023-01-17T22:46:38.630Z,9.60
2023-01-17T22:51:36.075Z,10.03
2023-01-17T22:56:34.271Z,9.65
2023-01-17T23:01:35.891Z,11.15
2023-01-17T23:06:38.420Z,10.70
2023-01-17T23:11:43.413Z,11.07
2023-01-17T23:17:05.160Z,10.25
2023-01-17T23:22:17.443Z,11.55
2023-01-17T23:27:37.849Z,12.05
2023-01-17T23:32:35.115Z,10.93
2023-01-17T23:37:54.914Z,10.13
2023-01-17T23:43:13.844Z,11.73
2023-01-17T23:48:11.385Z,10.25
2023-01-17T23:53:09.837Z,11.05
2023-01-17T23:58:11.701Z,11.05
